Impacts METAR Board
IDs:

KGRK - Killeen-Ft Hood Rgnl, TX, US

Updated at: 1700 UTC 24 Aug 2019
Potential Impact None Slight Moderate High
Time 24/05Z 24/06Z 24/07Z 24/08Z 24/09Z 24/10Z 24/11Z 24/12Z 24/13Z 24/14Z 24/15Z 24/16Z 24/17Z
Temp81 78 75 76 77 76 76 75 76 77 79 83 86
Dewpt71 71 72 72 73 71 71 72 72 73 73 73 72
Altim29.93 29.91 29.92 29.94 29.95 29.94 29.93 29.94 29.94 29.95 29.95 29.95 29.94
VIS10 9 10 9 10 10 10 9 10 10 10 10 10
CIG-- -- -- -- 30 180 160 160 140 140 140 150 --
CoverFEWFEWCLRSCTOVCOVCOVCOVCBKNOVCOVCBKNSCT
FltCatVFRVFRVFRVFRMVFRVFRVFRVFRVFRVFRVFRVFRVFR
WX---RA---RA------------------
WDir21025012000100801101201501601300
WSpd4 4 3 0 0 3 3 4 5 5 6 6 0
WGst-- -- -- -- -- -- -- -- -- -- -- -- --
Raw hourly METARs
KGRK 240458Z AUTO 21004KT 10SM FEW200 27/22 A2993 RMK AO2 LTG DSNT SW SLP123 T02700218
KGRK 240558Z AUTO 25004KT 9SM -RA FEW150 25/21 A2991 RMK AO2 RAB52 SLP116 P0000 60000 T02530214 10340 20253 403610233 58002
KGRK 240658Z AUTO 12003KT 10SM CLR 24/22 A2992 RMK AO2 LTG DSNT SW RAE13RAB17E30 SLP120 P0000 T02410222
KGRK 240758Z AUTO 00000KT 9SM -RA SCT130 24/22 A2994 RMK AO2 RAB53 SLP126 P0000 T02430224
KGRK 240903Z AUTO 00000KT 10SM SCT023 OVC030 25/23 A2995 RMK AO2 CIG 021 RWY33 SLP129
KGRK 240958Z AUTO 10003KT 10SM SCT160 BKN180 OVC200 25/22 A2994 RMK AO2 SLP125 T02470217
KGRK 241058Z AUTO 08003KT 10SM OVC160 24/22 A2993 RMK AO2 SLP122 T02440217
KGRK 241158Z AUTO 11004KT 9SM OVC160 24/22 A2994 RMK AO2 SLP126 60000 T02410220 10251 20240 55005
KGRK 241258Z AUTO 12005KT 10SM BKN140 BKN160 24/22 A2994 RMK AO2 CIG 140 RWY33 SLP127 T02420222
KGRK 241358Z AUTO 15005KT 10SM OVC140 25/23 A2995 RMK AO2 SLP131 T02490225
KGRK 241458Z AUTO 16006KT 10SM OVC140 26/23 A2995 RMK AO2 LTG DSNT SE SLP131 T02620227 52004
KGRK 241558Z AUTO 13006KT 10SM BKN150 28/23 A2995 RMK AO2 SLP130 T02810227
KGRK 241658Z COR 00000KT 10SM FEW150 SCT180 SCT330 30/22 A2994 RMK AO2A SLP126 T03000221 $ COR 1720



Page loaded:  17:37 UTC  |   10:37 AM Pacific  |   11:37 AM Mountain  |   12:37 PM Central  |   01:37 PM Eastern

 

ADVISORIES

FORECASTS

FORECASTS

OBSERVATIONS

USER TOOLS

ABOUT US